Home > Products > Valid Products > TAF

000
FTUS42 KRAH 241954 AAB
TAFFAY
TAF AMD
KFAY 241954Z 2420/2518 23011KT P6SM VCSH SCT045 BKN150
      TEMPO 2420/2424 VRB15G25KT 3SM SHRA BR BKN015
     FM250900 VRB05KT P6SM BKN035
      TEMPO 2509/2512 3SM BR BKN005=



000
FTUS42 KRAH 241954 AAA
TAFFAY
TAF AMD
KFAY 241954Z 2420/2518 25010KT P6SM VCSH SCT045 BKN150
      TEMPO 2420/2424 VRB15G25KT 3SM SHRA BR BKN015
     FM250900 VRB05KT P6SM BKN035
      TEMPO 2509/2512 3SM BR BKN005=



000
FTUS42 KRAH 241954 AAA
TAFFAY
TAF AMD
KFAY 241954Z 2420/2518 25010KT P6SM VCSH SCT045 BKN150
      TEMPO 2420/2424 VRB15G25KT 3SM SHRA BR BKN015
     FM250900 VRB05KT P6SM BKN035
      TEMPO 2509/2512 3SM BR BKN005=



000
FTUS42 KRAH 241946 AAA
TAFRDU
TAF AMD
KRDU 241946Z 2420/2518 VRB05KT P6SM VCSH SCT045 BKN150
      TEMPO 2420/2424 VRB15G25KT 3SM SHRA BR BKN015
     FM250600 VRB05KT P6SM BKN035
      TEMPO 2509/2512 3SM BR SCT005=



000
FTUS42 KRAH 241946 AAA
TAFRDU
TAF AMD
KRDU 241946Z 2420/2518 VRB05KT P6SM VCSH SCT045 BKN150
      TEMPO 2420/2424 VRB15G25KT 3SM SHRA BR BKN015
     FM250600 VRB05KT P6SM BKN035
      TEMPO 2509/2512 3SM BR SCT005=



000
FTUS42 KRAH 241726
TAFFAY
TAF
KFAY 241726Z 2418/2518 VRB05KT P6SM VCSH SCT025 BKN035
      TEMPO 2421/2501 VRB15G25KT 3SM SHRA BR BKN015
     FM250900 VRB05KT P6SM BKN035
      TEMPO 2509/2512 3SM BR BKN005=



000
FTUS42 KRAH 241726
TAFGSO
TAF
KGSO 241726Z 2418/2518 VRB05KT P6SM VCSH SCT025 BKN035
      TEMPO 2418/2422 VRB15G25KT 3SM SHRA BR BKN015
     FM250400 VRB05KT P6SM BKN035=



000
FTUS42 KRAH 241726
TAFRDU
TAF
KRDU 241726Z 2418/2518 VRB05KT P6SM VCSH SCT025 BKN035
      TEMPO 2421/2501 VRB15G25KT 3SM SHRA BR BKN015
     FM250600 VRB05KT P6SM BKN035
      TEMPO 2509/2512 3SM BR SCT005=



000
FTUS42 KRAH 241726
TAFINT
TAF
KINT 241726Z 2418/2518 VRB05KT P6SM VCSH SCT025 BKN035
      TEMPO 2418/2422 VRB15G25KT 3SM SHRA BR BKN015
     FM250400 VRB05KT P6SM BKN035=



000
FTUS42 KRAH 241726
TAFRWI
TAF
KRWI 241726Z 2418/2518 VRB05KT P6SM VCSH SCT025 BKN035
      TEMPO 2421/2501 VRB15G25KT 3SM SHRA BR BKN015
     FM250900 VRB05KT P6SM BKN035
      TEMPO 2509/2512 1SM BR BKN005=



000
FTUS42 KRAH 241726
TAFGSO
TAF
KGSO 241726Z 2418/2518 VRB05KT P6SM VCSH SCT025 BKN035
      TEMPO 2418/2422 VRB15G25KT 3SM SHRA BR BKN015
     FM250400 VRB05KT P6SM BKN035=



000
FTUS42 KRAH 241726
TAFINT
TAF
KINT 241726Z 2418/2518 VRB05KT P6SM VCSH SCT025 BKN035
      TEMPO 2418/2422 VRB15G25KT 3SM SHRA BR BKN015
     FM250400 VRB05KT P6SM BKN035=



000
FTUS42 KRAH 241726
TAFRWI
TAF
KRWI 241726Z 2418/2518 VRB05KT P6SM VCSH SCT025 BKN035
      TEMPO 2421/2501 VRB15G25KT 3SM SHRA BR BKN015
     FM250900 VRB05KT P6SM BKN035
      TEMPO 2509/2512 1SM BR BKN005=



000
FTUS42 KRAH 241726
TAFRDU
TAF
KRDU 241726Z 2418/2518 VRB05KT P6SM VCSH SCT025 BKN035
      TEMPO 2421/2501 VRB15G25KT 3SM SHRA BR BKN015
     FM250600 VRB05KT P6SM BKN035
      TEMPO 2509/2512 3SM BR SCT005=



000
FTUS42 KRAH 241726
TAFFAY
TAF
KFAY 241726Z 2418/2518 VRB05KT P6SM VCSH SCT025 BKN035
      TEMPO 2421/2501 VRB15G25KT 3SM SHRA BR BKN015
     FM250900 VRB05KT P6SM BKN035
      TEMPO 2509/2512 3SM BR BKN005=



000
FTUS42 KRAH 241407 AAA
TAFRWI
TAF AMD
KRWI 241407Z 2414/2512 VRB05KT P6SM VCSH SCT015 BKN035
      TEMPO 2415/2416 VRB20G30KT 3SM -TSRA BR BKN015 OVC025CB
     FM250600 VRB05KT P6SM BKN035=



000
FTUS42 KRAH 241407 AAA
TAFRWI
TAF AMD
KRWI 241407Z 2414/2512 VRB05KT P6SM VCSH SCT015 BKN035
      TEMPO 2415/2416 VRB20G30KT 3SM -TSRA BR BKN015 OVC025CB
     FM250600 VRB05KT P6SM BKN035=



000
FTUS42 KRAH 241405 AAA
TAFINT
TAF AMD
KINT 241405Z 2414/2512 VRB05KT P6SM VCSH SCT015 BKN035
      TEMPO 2414/2418 VRB15G25KT 3SM -SHRA BR SCT008 OVC012
     FM250600 VRB05KT P6SM BKN035=



000
FTUS42 KRAH 241405 AAA
TAFINT
TAF AMD
KINT 241405Z 2414/2512 VRB05KT P6SM VCSH SCT015 BKN035
      TEMPO 2414/2418 VRB15G25KT 3SM -SHRA BR SCT008 OVC012
     FM250600 VRB05KT P6SM BKN035=



000
FTUS42 KRAH 241405 AAA
TAFFAY
TAF AMD
KFAY 241405Z 2414/2512 23010KT P6SM VCSH SCT015 BKN035
      TEMPO 2414/2418 VRB15G25KT 3SM -SHRA BR OVC015
     FM250600 VRB05KT P6SM BKN035=



000
FTUS42 KRAH 241405 AAA
TAFGSO
TAF AMD
KGSO 241405Z 2414/2512 VRB05KT P6SM VCSH SCT015 BKN035
      TEMPO 2414/2418 VRB15G25KT 3SM -SHRA BR SCT008 OVC012
     FM250600 VRB05KT P6SM BKN035=



000
FTUS42 KRAH 241405 AAA
TAFFAY
TAF AMD
KFAY 241405Z 2414/2512 23010KT P6SM VCSH SCT015 BKN035
      TEMPO 2414/2418 VRB15G25KT 3SM -SHRA BR OVC015
     FM250600 VRB05KT P6SM BKN035=



000
FTUS42 KRAH 241405 AAA
TAFGSO
TAF AMD
KGSO 241405Z 2414/2512 VRB05KT P6SM VCSH SCT015 BKN035
      TEMPO 2414/2418 VRB15G25KT 3SM -SHRA BR SCT008 OVC012
     FM250600 VRB05KT P6SM BKN035=



000
FTUS42 KRAH 241403 AAB
TAFRDU
TAF AMD
KRDU 241403Z 2414/2512 VRB05KT P6SM VCSH SCT015 BKN035
      TEMPO 2414/2418 VRB15G25KT 3SM -SHRA BR OVC015
     FM250600 VRB05KT P6SM BKN035=



000
FTUS42 KRAH 241403 AAB
TAFRDU
TAF AMD
KRDU 241403Z 2414/2512 VRB05KT P6SM VCSH SCT015 BKN035
      TEMPO 2414/2418 VRB15G25KT 3SM -SHRA BR OVC015
     FM250600 VRB05KT P6SM BKN035=



000
FTUS42 KRAH 241239 AAA
TAFRDU
TAF AMD
KRDU 241239Z 2413/2512 25007KT P6SM VCSH SCT010 OVC035
      TEMPO 2413/2416 5SM -SHRA BR BKN010 OVC035
     FM250400 VRB05KT P6SM BKN035=



000
FTUS42 KRAH 241239 AAA
TAFRDU
TAF AMD
KRDU 241239Z 2413/2512 25007KT P6SM VCSH SCT010 OVC035
      TEMPO 2413/2416 5SM -SHRA BR BKN010 OVC035
     FM250400 VRB05KT P6SM BKN035=



000
FTUS42 KRAH 241130
TAFINT
TAF
KINT 241130Z 2412/2512 VRB03KT P6SM VCTS SCT040CB BKN100
      TEMPO 2412/2415 5SM -SHRA BR
     FM241700 28008KT P6SM BKN040
     FM250300 01005KT P6SM BKN040=



000
FTUS42 KRAH 241130
TAFRDU
TAF
KRDU 241130Z 2412/2512 27003KT P6SM BKN007 BKN040 BKN100
      TEMPO 2412/2414 FEW007 SCT040 SCT120
     FM241400 23005KT P6SM SCT040 SCT120
      TEMPO 2414/2416 5SM -SHRA BR BKN040
     FM241600 25007KT P6SM VCSH BKN040
     FM242200 VRB05KT P6SM BKN035=



000
FTUS42 KRAH 241130
TAFGSO
TAF
KGSO 241130Z 2412/2512 00000KT P6SM VCTS BKN040CB
      TEMPO 2412/2415 5SM -SHRA BR
     FM241700 28008KT P6SM BKN040
     FM250300 01005KT P6SM BKN040=



000
FTUS42 KRAH 241130
TAFRWI
TAF
KRWI 241130Z 2412/2512 21004KT P6SM FEW008 BKN090
      TEMPO 2412/2414 BKN008
     FM241600 25007KT P6SM VCSH BKN040
     FM242200 VRB05KT P6SM BKN035=



000
FTUS42 KRAH 241130
TAFFAY
TAF
KFAY 241130Z 2412/2512 23005KT P6SM BKN006
      TEMPO 2412/2414 FEW006 SCT040 SCT120
     FM241400 23005KT P6SM SCT040 SCT120
     FM241700 25007KT P6SM VCSH BKN040
     FM242300 VRB05KT P6SM BKN035=



000
FTUS42 KRAH 241130
TAFRDU
TAF
KRDU 241130Z 2412/2512 27003KT P6SM BKN007 BKN040 BKN100
      TEMPO 2412/2414 FEW007 SCT040 SCT120
     FM241400 23005KT P6SM SCT040 SCT120
      TEMPO 2414/2416 5SM -SHRA BR BKN040
     FM241600 25007KT P6SM VCSH BKN040
     FM242200 VRB05KT P6SM BKN035=



000
FTUS42 KRAH 241130
TAFINT
TAF
KINT 241130Z 2412/2512 VRB03KT P6SM VCTS SCT040CB BKN100
      TEMPO 2412/2415 5SM -SHRA BR
     FM241700 28008KT P6SM BKN040
     FM250300 01005KT P6SM BKN040=



000
FTUS42 KRAH 241130
TAFFAY
TAF
KFAY 241130Z 2412/2512 23005KT P6SM BKN006
      TEMPO 2412/2414 FEW006 SCT040 SCT120
     FM241400 23005KT P6SM SCT040 SCT120
     FM241700 25007KT P6SM VCSH BKN040
     FM242300 VRB05KT P6SM BKN035=



000
FTUS42 KRAH 241130
TAFRWI
TAF
KRWI 241130Z 2412/2512 21004KT P6SM FEW008 BKN090
      TEMPO 2412/2414 BKN008
     FM241600 25007KT P6SM VCSH BKN040
     FM242200 VRB05KT P6SM BKN035=



000
FTUS42 KRAH 241130
TAFGSO
TAF
KGSO 241130Z 2412/2512 00000KT P6SM VCTS BKN040CB
      TEMPO 2412/2415 5SM -SHRA BR
     FM241700 28008KT P6SM BKN040
     FM250300 01005KT P6SM BKN040=



000
FTUS42 KRAH 241044 AAB
TAFRDU
TAF AMD
KRDU 241044Z 2411/2506 23005KT 6SM BR BKN007
      TEMPO 2411/2413 FEW007 SCT040 SCT120
     FM241300 23005KT P6SM FEW007 SCT040 SCT120
     FM241600 25007KT P6SM VCSH BKN040
     FM242200 VRB05KT P6SM BKN035=



000
FTUS42 KRAH 241044 AAB
TAFRDU
TAF AMD
KRDU 241044Z 2411/2506 23005KT 6SM BR BKN007
      TEMPO 2411/2413 FEW007 SCT040 SCT120
     FM241300 23005KT P6SM FEW007 SCT040 SCT120
     FM241600 25007KT P6SM VCSH BKN040
     FM242200 VRB05KT P6SM BKN035=



000
FTUS42 KRAH 240904 AAB
TAFGSO
TAF AMD
KGSO 240904Z 2409/2506 26005KT P6SM VCTS BKN040CB BKN120
     FM241700 28008KT P6SM BKN040
     FM250300 01005KT P6SM BKN040=



000
FTUS42 KRAH 240904 AAB
TAFGSO
TAF AMD
KGSO 240904Z 2409/2506 26005KT P6SM VCTS BKN040CB BKN120
     FM241700 28008KT P6SM BKN040
     FM250300 01005KT P6SM BKN040=



000
FTUS42 KRAH 240904 AAA
TAFRDU
TAF AMD
KRDU 240904Z 2409/2506 23005KT P6SM SCT040 SCT120
     FM241600 25007KT P6SM VCSH BKN040
     FM242200 VRB05KT P6SM BKN035=



000
FTUS42 KRAH 240802 AAA
TAFINT
TAF AMD
KINT 240802Z 2408/2506 25005KT P6SM VCTS BKN040CB BKN120
     FM241700 28008KT P6SM BKN040
     FM250300 01005KT P6SM BKN040=



000
FTUS42 KRAH 240801 AAA
TAFGSO
TAF AMD
KGSO 240801Z 2408/2506 25005KT P6SM VCTS BKN040CB BKN120
     FM241700 28008KT P6SM BKN040
     FM250300 01005KT P6SM BKN040=



000
FTUS42 KRAH 240801 AAA
TAFGSO
TAF AMD
KGSO 240801Z 2408/2506 25005KT P6SM VCTS BKN040CB BKN120
     FM241700 28008KT P6SM BKN040
     FM250300 01005KT P6SM BKN040=



000
FTUS42 KRAH 240539
TAFINT
TAF
KINT 240539Z 2406/2506 23003KT P6SM BKN120
     FM241400 26007KT P6SM VCTS BKN040CB
     FM241900 31008KT P6SM BKN040
     FM250300 36003KT P6SM BKN040=



000
FTUS42 KRAH 240539
TAFRWI
TAF
KRWI 240539Z 2406/2506 20006KT P6SM SKC
     FM241600 25007KT P6SM VCSH BKN040
     FM242200 VRB05KT P6SM BKN035=



000
FTUS42 KRAH 240539
TAFFAY
TAF
KFAY 240539Z 2406/2506 21008KT P6SM SKC
     FM241800 25007KT P6SM VCSH BKN040
     FM250000 VRB05KT P6SM BKN035=



000
FTUS42 KRAH 240539
TAFGSO
TAF
KGSO 240539Z 2406/2506 21005KT P6SM BKN120
     FM241400 26007KT P6SM VCTS BKN040CB
     FM241900 31008KT P6SM BKN040
     FM250300 36003KT P6SM BKN040=



000
FTUS42 KRAH 240539
TAFRDU
TAF
KRDU 240539Z 2406/2506 23008KT P6SM SCT040 SCT120
     FM241600 25007KT P6SM VCSH BKN040
     FM242200 VRB05KT P6SM BKN035=



000
FTUS42 KRAH 240539
TAFGSO
TAF
KGSO 240539Z 2406/2506 21005KT P6SM BKN120
     FM241400 26007KT P6SM VCTS BKN040CB
     FM241900 31008KT P6SM BKN040
     FM250300 36003KT P6SM BKN040=



000
FTUS42 KRAH 240539
TAFRDU
TAF
KRDU 240539Z 2406/2506 23008KT P6SM SCT040 SCT120
     FM241600 25007KT P6SM VCSH BKN040
     FM242200 VRB05KT P6SM BKN035=



000
FTUS42 KRAH 240539
TAFRWI
TAF
KRWI 240539Z 2406/2506 20006KT P6SM SKC
     FM241600 25007KT P6SM VCSH BKN040
     FM242200 VRB05KT P6SM BKN035=



000
FTUS42 KRAH 240539
TAFINT
TAF
KINT 240539Z 2406/2506 23003KT P6SM BKN120
     FM241400 26007KT P6SM VCTS BKN040CB
     FM241900 31008KT P6SM BKN040
     FM250300 36003KT P6SM BKN040=



000
FTUS42 KRAH 240539
TAFFAY
TAF
KFAY 240539Z 2406/2506 21008KT P6SM SKC
     FM241800 25007KT P6SM VCSH BKN040
     FM250000 VRB05KT P6SM BKN035=



000
FTUS42 KRAH 240147 AAA
TAFGSO
TAF AMD
KGSO 240147Z 2402/2424 26005KT P6SM SCT040 BKN250
     FM241500 28007KT P6SM VCSH BKN040=



000
FTUS42 KRAH 240147 AAA
TAFRDU
TAF AMD
KRDU 240147Z 2402/2424 23007KT P6SM FEW060 SCT250
     FM241600 24007KT P6SM VCSH BKN040=



000
FTUS42 KRAH 240147 AAA
TAFRDU
TAF AMD
KRDU 240147Z 2402/2424 23007KT P6SM FEW060 SCT250
     FM241600 24007KT P6SM VCSH BKN040=



000
FTUS42 KRAH 240147 AAA
TAFGSO
TAF AMD
KGSO 240147Z 2402/2424 26005KT P6SM SCT040 BKN250
     FM241500 28007KT P6SM VCSH BKN040=



000
FTUS42 KRAH 232326
TAFGSO
TAF
KGSO 232326Z 2400/2424 23006KT P6SM FEW050
     FM241500 28007KT P6SM VCSH BKN040=



000
FTUS42 KRAH 232326
TAFRWI
TAF
KRWI 232326Z 2400/2424 19008KT P6SM SKC
     FM240900 23003KT 4SM BR SCT005
     FM241200 24006KT P6SM SCT025
     FM241700 24007KT P6SM VCSH BKN040=



000
FTUS42 KRAH 232326
TAFFAY
TAF
KFAY 232326Z 2400/2424 23008KT P6SM SKC
     FM240800 24004KT 5SM BR SCT005
     FM241200 24006KT P6SM SCT030
     FM241600 25008KT P6SM VCSH BKN040=



000
FTUS42 KRAH 232326
TAFINT
TAF
KINT 232326Z 2400/2424 23006KT P6SM FEW050
     FM241500 28007KT P6SM VCSH BKN040=



000
FTUS42 KRAH 232326
TAFRDU
TAF
KRDU 232326Z 2400/2424 21008KT P6SM SCT040 BKN250
     FM241600 24007KT P6SM VCSH BKN040=



000
FTUS42 KRAH 232326
TAFINT
TAF
KINT 232326Z 2400/2424 23006KT P6SM FEW050
     FM241500 28007KT P6SM VCSH BKN040=



000
FTUS42 KRAH 232326
TAFFAY
TAF
KFAY 232326Z 2400/2424 23008KT P6SM SKC
     FM240800 24004KT 5SM BR SCT005
     FM241200 24006KT P6SM SCT030
     FM241600 25008KT P6SM VCSH BKN040=



000
FTUS42 KRAH 232326
TAFRWI
TAF
KRWI 232326Z 2400/2424 19008KT P6SM SKC
     FM240900 23003KT 4SM BR SCT005
     FM241200 24006KT P6SM SCT025
     FM241700 24007KT P6SM VCSH BKN040=



000
FTUS42 KRAH 232326
TAFRDU
TAF
KRDU 232326Z 2400/2424 21008KT P6SM SCT040 BKN250
     FM241600 24007KT P6SM VCSH BKN040=



000
FTUS42 KRAH 232326
TAFGSO
TAF
KGSO 232326Z 2400/2424 23006KT P6SM FEW050
     FM241500 28007KT P6SM VCSH BKN040=



000
FTUS42 KRAH 232017 AAA
TAFFAY
TAF AMD
KFAY 232017Z 2320/2418 24006KT P6SM VCTS SCT045CB
     FM232300 24009KT P6SM SCT040 BKN080
     FM240800 24004KT 5SM BR SCT005
     FM241200 25005KT P6SM SCT025
     FM241600 25008KT P6SM BKN040=



000
FTUS42 KRAH 232017 AAA
TAFFAY
TAF AMD
KFAY 232017Z 2320/2418 24006KT P6SM VCTS SCT045CB
     FM232300 24009KT P6SM SCT040 BKN080
     FM240800 24004KT 5SM BR SCT005
     FM241200 25005KT P6SM SCT025
     FM241600 25008KT P6SM BKN040=



000
FTUS42 KRAH 231723
TAFINT
TAF
KINT 231723Z 2318/2418 24007KT P6SM BKN045
     FM240900 24003KT 5SM BR SCT080
     FM241200 26006KT P6SM SCT030
     FM241500 26007KT P6SM VCSH BKN040=



000
FTUS42 KRAH 231723
TAFRDU
TAF
KRDU 231723Z 2318/2418 23006KT P6SM BKN045
     FM240900 23003KT 5SM BR SCT080
     FM241200 24006KT P6SM SCT030
     FM241600 24007KT P6SM VCSH BKN040=



000
FTUS42 KRAH 231723
TAFFAY
TAF
KFAY 231723Z 2318/2418 24006KT P6SM VCSH BKN045
      TEMPO 2318/2319 4SM -TSRA BR BKN025CB
     FM232300 24009KT P6SM SCT040 BKN080
     FM240800 24004KT 5SM BR SCT005
     FM241200 25005KT P6SM SCT025
     FM241600 25008KT P6SM BKN040=



000
FTUS42 KRAH 231723
TAFGSO
TAF
KGSO 231723Z 2318/2418 24007KT P6SM BKN045
     FM240900 24003KT 5SM BR SCT080
     FM241200 26006KT P6SM SCT030
     FM241500 26007KT P6SM VCSH BKN040=



000
FTUS42 KRAH 231723
TAFRWI
TAF
KRWI 231723Z 2318/2418 23006KT P6SM VCSH SCT045
     FM240900 23003KT 4SM BR SCT005
     FM241200 24006KT P6SM SCT025
     FM241600 24007KT P6SM BKN040=



000
FTUS42 KRAH 231723
TAFRDU
TAF
KRDU 231723Z 2318/2418 23006KT P6SM BKN045
     FM240900 23003KT 5SM BR SCT080
     FM241200 24006KT P6SM SCT030
     FM241600 24007KT P6SM VCSH BKN040=



000
FTUS42 KRAH 231723
TAFGSO
TAF
KGSO 231723Z 2318/2418 24007KT P6SM BKN045
     FM240900 24003KT 5SM BR SCT080
     FM241200 26006KT P6SM SCT030
     FM241500 26007KT P6SM VCSH BKN040=



000
FTUS42 KRAH 231723
TAFINT
TAF
KINT 231723Z 2318/2418 24007KT P6SM BKN045
     FM240900 24003KT 5SM BR SCT080
     FM241200 26006KT P6SM SCT030
     FM241500 26007KT P6SM VCSH BKN040=



000
FTUS42 KRAH 231723
TAFRWI
TAF
KRWI 231723Z 2318/2418 23006KT P6SM VCSH SCT045
     FM240900 23003KT 4SM BR SCT005
     FM241200 24006KT P6SM SCT025
     FM241600 24007KT P6SM BKN040=



000
FTUS42 KRAH 231723
TAFFAY
TAF
KFAY 231723Z 2318/2418 24006KT P6SM VCSH BKN045
      TEMPO 2318/2319 4SM -TSRA BR BKN025CB
     FM232300 24009KT P6SM SCT040 BKN080
     FM240800 24004KT 5SM BR SCT005
     FM241200 25005KT P6SM SCT025
     FM241600 25008KT P6SM BKN040=



000
FTUS42 KRAH 231655 AAD
TAFFAY
TAF AMD
KFAY 231655Z 2317/2412 27006KT P6SM VCSH BKN045
      TEMPO 2317/2319 4SM -TSRA BR BKN025CB
     FM232300 24009KT P6SM SCT040 BKN070 BKN120
     FM241100 24005KT P6SM BKN040 BKN080=



000
FTUS42 KRAH 231655 AAD
TAFFAY
TAF AMD
KFAY 231655Z 2317/2412 27006KT P6SM VCSH BKN045
      TEMPO 2317/2319 4SM -TSRA BR BKN025CB
     FM232300 24009KT P6SM SCT040 BKN070 BKN120
     FM241100 24005KT P6SM BKN040 BKN080=



000
FTUS42 KRAH 231637 AAC
TAFFAY
TAF AMD
KFAY 231637Z 2317/2412 27006KT P6SM VCSH BKN045
      TEMPO 2317/2320 4SM -SHRA BR BKN025
     FM232300 24009KT P6SM SCT040 BKN070 BKN120
     FM241100 24005KT P6SM BKN040 BKN080=



000
FTUS42 KRAH 231637 AAC
TAFFAY
TAF AMD
KFAY 231637Z 2317/2412 27006KT P6SM VCSH BKN045
      TEMPO 2317/2320 4SM -SHRA BR BKN025
     FM232300 24009KT P6SM SCT040 BKN070 BKN120
     FM241100 24005KT P6SM BKN040 BKN080=



000
FTUS42 KRAH 231501 AAC
TAFRWI
TAF AMD
KRWI 231501Z 2315/2412 23005KT P6SM BKN045
      TEMPO 2315/2316 BKN025
     FM231800 24008KT P6SM VCSH BKN050
     FM232300 24009KT P6SM SCT040 BKN070 BKN120
     FM241100 24005KT P6SM BKN040 BKN080=



000
FTUS42 KRAH 231501 AAC
TAFRWI
TAF AMD
KRWI 231501Z 2315/2412 23005KT P6SM BKN045
      TEMPO 2315/2316 BKN025
     FM231800 24008KT P6SM VCSH BKN050
     FM232300 24009KT P6SM SCT040 BKN070 BKN120
     FM241100 24005KT P6SM BKN040 BKN080=



000
FTUS42 KRAH 231500 AAB
TAFFAY
TAF AMD
KFAY 231500Z 2315/2412 27006KT P6SM BKN045
      TEMPO 2315/2316 BKN025
     FM231800 24008KT P6SM VCSH BKN050
     FM232300 24009KT P6SM SCT040 BKN070 BKN120
     FM241100 24005KT P6SM BKN040 BKN080=



000
FTUS42 KRAH 231500 AAB
TAFFAY
TAF AMD
KFAY 231500Z 2315/2412 27006KT P6SM BKN045
      TEMPO 2315/2316 BKN025
     FM231800 24008KT P6SM VCSH BKN050
     FM232300 24009KT P6SM SCT040 BKN070 BKN120
     FM241100 24005KT P6SM BKN040 BKN080=



000
FTUS42 KRAH 231225 AAB
TAFRDU
TAF AMD
KRDU 231225Z 2312/2412 23004KT P6SM SCT005
     FM231400 24005KT P6SM SCT015
     FM231800 24008KT P6SM VCSH BKN050
     FM232300 24009KT P6SM SCT040 BKN070 BKN120
     FM241000 24005KT P6SM BKN040 BKN080=



000
FTUS42 KRAH 231225 AAB
TAFRDU
TAF AMD
KRDU 231225Z 2312/2412 23004KT P6SM SCT005
     FM231400 24005KT P6SM SCT015
     FM231800 24008KT P6SM VCSH BKN050
     FM232300 24009KT P6SM SCT040 BKN070 BKN120
     FM241000 24005KT P6SM BKN040 BKN080=



000
FTUS42 KRAH 231214 AAB
TAFRWI
TAF AMD
KRWI 231214Z 2312/2412 23005KT P6SM OVC006
      TEMPO 2312/2313 4SM BR OVC004
     FM231400 24005KT P6SM SCT012
     FM231800 24008KT P6SM VCSH BKN050
     FM232300 24009KT P6SM SCT040 BKN070 BKN120
     FM241100 24005KT P6SM BKN040 BKN080=



000
FTUS42 KRAH 231214 AAB
TAFRWI
TAF AMD
KRWI 231214Z 2312/2412 23005KT P6SM OVC006
      TEMPO 2312/2313 4SM BR OVC004
     FM231400 24005KT P6SM SCT012
     FM231800 24008KT P6SM VCSH BKN050
     FM232300 24009KT P6SM SCT040 BKN070 BKN120
     FM241100 24005KT P6SM BKN040 BKN080=



000
FTUS42 KRAH 231213 AAA
TAFFAY
TAF AMD
KFAY 231213Z 2312/2412 24006KT P6SM BKN006
      TEMPO 2312/2313 4SM BR OVC004
     FM231400 24005KT P6SM SCT015
     FM231800 24008KT P6SM VCSH BKN050
     FM232300 24009KT P6SM SCT040 BKN070 BKN120
     FM241100 24005KT P6SM BKN040 BKN080=



000
FTUS42 KRAH 231213 AAA
TAFFAY
TAF AMD
KFAY 231213Z 2312/2412 24006KT P6SM BKN006
      TEMPO 2312/2313 4SM BR OVC004
     FM231400 24005KT P6SM SCT015
     FM231800 24008KT P6SM VCSH BKN050
     FM232300 24009KT P6SM SCT040 BKN070 BKN120
     FM241100 24005KT P6SM BKN040 BKN080=



000
FTUS42 KRAH 231212 AAA
TAFRDU
TAF AMD
KRDU 231212Z 2312/2412 23004KT P6SM SCT005
      TEMPO 2312/2313 3SM BR BKN004
     FM231400 24005KT P6SM SCT015
     FM231800 24008KT P6SM VCSH BKN050
     FM232300 24009KT P6SM SCT040 BKN070 BKN120
     FM241000 24005KT P6SM BKN040 BKN080=



000
FTUS42 KRAH 231212 AAA
TAFRDU
TAF AMD
KRDU 231212Z 2312/2412 23004KT P6SM SCT005
      TEMPO 2312/2313 3SM BR BKN004
     FM231400 24005KT P6SM SCT015
     FM231800 24008KT P6SM VCSH BKN050
     FM232300 24009KT P6SM SCT040 BKN070 BKN120
     FM241000 24005KT P6SM BKN040 BKN080=



000
FTUS42 KRAH 231211 AAA
TAFRWI
TAF AMD
KRWI 231211Z 2312/2412 23005KT P6SM OVC006
      TEMPO 2312/2313 4SM BR
     FM231400 24005KT P6SM SCT012
     FM231800 24008KT P6SM VCSH BKN050
     FM232300 24009KT P6SM SCT040 BKN070 BKN120
     FM241100 24005KT P6SM BKN040 BKN080=



000
FTUS42 KRAH 231211 AAA
TAFRWI
TAF AMD
KRWI 231211Z 2312/2412 23005KT P6SM OVC006
      TEMPO 2312/2313 4SM BR
     FM231400 24005KT P6SM SCT012
     FM231800 24008KT P6SM VCSH BKN050
     FM232300 24009KT P6SM SCT040 BKN070 BKN120
     FM241100 24005KT P6SM BKN040 BKN080=



000
FTUS42 KRAH 231121
TAFRDU
TAF
KRDU 231121Z 2312/2412 00000KT 1/2SM FG BKN002
     FM231330 24003KT 4SM BR BKN005
     FM231500 24005KT P6SM SCT012
     FM231800 24008KT P6SM VCSH BKN050
     FM232300 24009KT P6SM SCT040 BKN070 BKN120
     FM241000 24005KT P6SM BKN040 BKN080=



000
FTUS42 KRAH 231121
TAFGSO
TAF
KGSO 231121Z 2312/2412 23004KT 6SM BR FEW250
     FM231700 24008KT P6SM VCSH BKN050
     FM232200 24007KT P6SM SCT040 BKN070 BKN120
     FM240900 24005KT P6SM BKN040 BKN080=



000
FTUS42 KRAH 231121
TAFINT
TAF
KINT 231121Z 2312/2412 VRB03KT P6SM SCT040 SCT250
     FM231700 24008KT P6SM VCSH BKN050
     FM232200 24007KT P6SM SCT040 BKN070 BKN120
     FM240900 24005KT P6SM BKN040 BKN080=



000
FTUS42 KRAH 231121
TAFFAY
TAF
KFAY 231121Z 2312/2412 23005KT 1 1/2SM BR OVC002
     FM231330 24005KT 4SM BR BKN005
     FM231500 24005KT P6SM SCT012
     FM231800 24008KT P6SM VCSH BKN050
     FM232300 24009KT P6SM SCT040 BKN070 BKN120
     FM241100 24005KT P6SM BKN040 BKN080=



000
FTUS42 KRAH 231121
TAFRWI
TAF
KRWI 231121Z 2312/2412 21003KT 1/4SM FG VV002
     FM231330 24003KT 4SM BR BKN005
     FM231500 24005KT P6SM SCT012
     FM231800 24008KT P6SM VCSH BKN050
     FM232300 24009KT P6SM SCT040 BKN070 BKN120
     FM241100 24005KT P6SM BKN040 BKN080=



000
FTUS42 KRAH 231121
TAFFAY
TAF
KFAY 231121Z 2312/2412 23005KT 1 1/2SM BR OVC002
     FM231330 24005KT 4SM BR BKN005
     FM231500 24005KT P6SM SCT012
     FM231800 24008KT P6SM VCSH BKN050
     FM232300 24009KT P6SM SCT040 BKN070 BKN120
     FM241100 24005KT P6SM BKN040 BKN080=



000
FTUS42 KRAH 231121
TAFGSO
TAF
KGSO 231121Z 2312/2412 23004KT 6SM BR FEW250
     FM231700 24008KT P6SM VCSH BKN050
     FM232200 24007KT P6SM SCT040 BKN070 BKN120
     FM240900 24005KT P6SM BKN040 BKN080=



000
FTUS42 KRAH 231121
TAFRWI
TAF
KRWI 231121Z 2312/2412 21003KT 1/4SM FG VV002
     FM231330 24003KT 4SM BR BKN005
     FM231500 24005KT P6SM SCT012
     FM231800 24008KT P6SM VCSH BKN050
     FM232300 24009KT P6SM SCT040 BKN070 BKN120
     FM241100 24005KT P6SM BKN040 BKN080=



000
FTUS42 KRAH 231121
TAFINT
TAF
KINT 231121Z 2312/2412 VRB03KT P6SM SCT040 SCT250
     FM231700 24008KT P6SM VCSH BKN050
     FM232200 24007KT P6SM SCT040 BKN070 BKN120
     FM240900 24005KT P6SM BKN040 BKN080=



000
FTUS42 KRAH 231121
TAFRDU
TAF
KRDU 231121Z 2312/2412 00000KT 1/2SM FG BKN002
     FM231330 24003KT 4SM BR BKN005
     FM231500 24005KT P6SM SCT012
     FM231800 24008KT P6SM VCSH BKN050
     FM232300 24009KT P6SM SCT040 BKN070 BKN120
     FM241000 24005KT P6SM BKN040 BKN080=



000
FTUS42 KRAH 230842 AAB
TAFRWI
TAF AMD
KRWI 230842Z 2309/2406 00000KT 1/2SM FG OVC004
      TEMPO 2309/2312 2SM BR OVC006
     FM231300 VRB03KT 6SM BR BKN012 BKN080
     FM231500 23004KT P6SM SCT020 BKN080
     FM231800 24008KT P6SM VCSH BKN050
     FM232300 24009KT P6SM SCT035 BKN120=



000
FTUS42 KRAH 230842 AAB
TAFRWI
TAF AMD
KRWI 230842Z 2309/2406 00000KT 1/2SM FG OVC004
      TEMPO 2309/2312 2SM BR OVC006
     FM231300 VRB03KT 6SM BR BKN012 BKN080
     FM231500 23004KT P6SM SCT020 BKN080
     FM231800 24008KT P6SM VCSH BKN050
     FM232300 24009KT P6SM SCT035 BKN120=



000
FTUS42 KRAH 230831 AAC
TAFRDU
TAF AMD
KRDU 230831Z 2309/2406 00000KT 2SM BR BCFG BKN003
      TEMPO 2309/2312 1/2SM FG OVC001
     FM231200 23004KT P6SM SCT020 BKN080
     FM231700 24008KT P6SM VCSH BKN050
     FM232200 24009KT P6SM SCT035 BKN120=



000
FTUS42 KRAH 230831 AAC
TAFRDU
TAF AMD
KRDU 230831Z 2309/2406 00000KT 2SM BR BCFG BKN003
      TEMPO 2309/2312 1/2SM FG OVC001
     FM231200 23004KT P6SM SCT020 BKN080
     FM231700 24008KT P6SM VCSH BKN050
     FM232200 24009KT P6SM SCT035 BKN120=



000
FTUS42 KRAH 230830 AAB
TAFFAY
TAF AMD
KFAY 230830Z 2309/2406 21005KT 1SM BR OVC002
      TEMPO 2309/2312 2SM BR BKN006
     FM231400 23004KT P6SM SCT020 BKN080
     FM231800 24008KT P6SM VCSH BKN050
     FM232300 24009KT P6SM SCT035 BKN120=



000
FTUS42 KRAH 230830 AAB
TAFFAY
TAF AMD
KFAY 230830Z 2309/2406 21005KT 1SM BR OVC002
      TEMPO 2309/2312 2SM BR BKN006
     FM231400 23004KT P6SM SCT020 BKN080
     FM231800 24008KT P6SM VCSH BKN050
     FM232300 24009KT P6SM SCT035 BKN120=



000
FTUS42 KRAH 230728 AAB
TAFRDU
TAF AMD
KRDU 230728Z 2307/2406 00000KT 1/4SM FG OVC001
      TEMPO 2307/2311 3SM BR BCFG BKN002
     FM231100 23004KT P6SM SCT020 BKN080
     FM231700 24008KT P6SM VCSH BKN050
     FM232200 24009KT P6SM SCT035 BKN120=



000
FTUS42 KRAH 230728 AAB
TAFRDU
TAF AMD
KRDU 230728Z 2307/2406 00000KT 1/4SM FG OVC001
      TEMPO 2307/2311 3SM BR BCFG BKN002
     FM231100 23004KT P6SM SCT020 BKN080
     FM231700 24008KT P6SM VCSH BKN050
     FM232200 24009KT P6SM SCT035 BKN120=



000
FTUS42 KRAH 230637 AAA
TAFRDU
TAF AMD
KRDU 230637Z 2307/2406 VRB04KT P6SM BCFG SCT002 BKN060
      TEMPO 2307/2311 5SM BR BCFG BKN002
     FM231300 23004KT P6SM SCT020 BKN080
     FM231700 24008KT P6SM VCSH BKN050
     FM232200 24009KT P6SM SCT035 BKN120=



000
FTUS42 KRAH 230637 AAA
TAFRDU
TAF AMD
KRDU 230637Z 2307/2406 VRB04KT P6SM BCFG SCT002 BKN060
      TEMPO 2307/2311 5SM BR BCFG BKN002
     FM231300 23004KT P6SM SCT020 BKN080
     FM231700 24008KT P6SM VCSH BKN050
     FM232200 24009KT P6SM SCT035 BKN120=



000
FTUS42 KRAH 230623 AAA
TAFRWI
TAF AMD
KRWI 230623Z 2306/2406 VRB03KT P6SM SCT004 BKN015
      TEMPO 2306/2309 5SM BR OVC004
     FM230900 VRB03KT 4SM BR OVC004
      TEMPO 2309/2312 2SM BR
     FM231300 VRB03KT 6SM BR BKN012 BKN080
     FM231500 23004KT P6SM SCT020 BKN080
     FM231800 24008KT P6SM VCSH BKN050
     FM232300 24009KT P6SM SCT035 BKN120=



000
FTUS42 KRAH 230623 AAA
TAFRWI
TAF AMD
KRWI 230623Z 2306/2406 VRB03KT P6SM SCT004 BKN015
      TEMPO 2306/2309 5SM BR OVC004
     FM230900 VRB03KT 4SM BR OVC004
      TEMPO 2309/2312 2SM BR
     FM231300 VRB03KT 6SM BR BKN012 BKN080
     FM231500 23004KT P6SM SCT020 BKN080
     FM231800 24008KT P6SM VCSH BKN050
     FM232300 24009KT P6SM SCT035 BKN120=



000
FTUS42 KRAH 230622 AAA
TAFFAY
TAF AMD
KFAY 230622Z 2306/2406 20004KT P6SM FEW012 SCT035
      TEMPO 2306/2309 5SM BR
     FM230900 VRB03KT 4SM BR SCT006
      TEMPO 2309/2312 2SM BR BKN006
     FM231400 23004KT P6SM SCT020 BKN080
     FM231800 24008KT P6SM VCSH BKN050
     FM232300 24009KT P6SM SCT035 BKN120=



000
FTUS42 KRAH 230622 AAA
TAFFAY
TAF AMD
KFAY 230622Z 2306/2406 20004KT P6SM FEW012 SCT035
      TEMPO 2306/2309 5SM BR
     FM230900 VRB03KT 4SM BR SCT006
      TEMPO 2309/2312 2SM BR BKN006
     FM231400 23004KT P6SM SCT020 BKN080
     FM231800 24008KT P6SM VCSH BKN050
     FM232300 24009KT P6SM SCT035 BKN120=



000
FTUS42 KRAH 230540
TAFGSO
TAF
KGSO 230540Z 2306/2406 VRB04KT P6SM BKN060
      TEMPO 2309/2312 5SM BR
     FM231600 24008KT P6SM VCSH BKN050
     FM232100 24009KT P6SM SCT035 BKN120=



000
FTUS42 KRAH 230540
TAFRDU
TAF
KRDU 230540Z 2306/2406 VRB04KT P6SM SCT009 BKN060
      TEMPO 2308/2312 5SM BR BKN009
     FM231300 23004KT P6SM SCT020 BKN080
     FM231700 24008KT P6SM VCSH BKN050
     FM232200 24009KT P6SM SCT035 BKN120=



000
FTUS42 KRAH 230540
TAFFAY
TAF
KFAY 230540Z 2306/2406 VRB03KT P6SM VCSH SCT012 BKN030
      TEMPO 2306/2309 5SM BR BKN012 BKN030
     FM230900 VRB03KT 4SM BR BKN012 BKN035
      TEMPO 2309/2312 2SM BR OVC006
     FM231400 23004KT P6SM SCT020 BKN080
     FM231800 24008KT P6SM VCSH BKN050
     FM232300 24009KT P6SM SCT035 BKN120=



000
FTUS42 KRAH 230540
TAFINT
TAF
KINT 230540Z 2306/2406 VRB04KT P6SM SCT035 BKN090
      TEMPO 2309/2312 5SM BR
     FM231600 24008KT P6SM VCSH BKN050
     FM232100 24009KT P6SM SCT035 BKN120=



000
FTUS42 KRAH 230540
TAFRWI
TAF
KRWI 230540Z 2306/2406 VRB02KT P6SM BKN009
      TEMPO 2306/2309 5SM BR OVC005
     FM230900 VRB03KT 4SM BR OVC005
      TEMPO 2309/2312 2SM BR OVC002
     FM231300 VRB03KT 6SM BR BKN012 BKN080
     FM231500 23004KT P6SM SCT020 BKN080
     FM231800 24008KT P6SM VCSH BKN050
     FM232300 24009KT P6SM SCT035 BKN120=



000
FTUS42 KRAH 230540
TAFRDU
TAF
KRDU 230540Z 2306/2406 VRB04KT P6SM SCT009 BKN060
      TEMPO 2308/2312 5SM BR BKN009
     FM231300 23004KT P6SM SCT020 BKN080
     FM231700 24008KT P6SM VCSH BKN050
     FM232200 24009KT P6SM SCT035 BKN120=



000
FTUS42 KRAH 230540
TAFFAY
TAF
KFAY 230540Z 2306/2406 VRB03KT P6SM VCSH SCT012 BKN030
      TEMPO 2306/2309 5SM BR BKN012 BKN030
     FM230900 VRB03KT 4SM BR BKN012 BKN035
      TEMPO 2309/2312 2SM BR OVC006
     FM231400 23004KT P6SM SCT020 BKN080
     FM231800 24008KT P6SM VCSH BKN050
     FM232300 24009KT P6SM SCT035 BKN120=



000
FTUS42 KRAH 230540
TAFINT
TAF
KINT 230540Z 2306/2406 VRB04KT P6SM SCT035 BKN090
      TEMPO 2309/2312 5SM BR
     FM231600 24008KT P6SM VCSH BKN050
     FM232100 24009KT P6SM SCT035 BKN120=



000
FTUS42 KRAH 230540
TAFGSO
TAF
KGSO 230540Z 2306/2406 VRB04KT P6SM BKN060
      TEMPO 2309/2312 5SM BR
     FM231600 24008KT P6SM VCSH BKN050
     FM232100 24009KT P6SM SCT035 BKN120=



000
FTUS42 KRAH 230540
TAFRWI
TAF
KRWI 230540Z 2306/2406 VRB02KT P6SM BKN009
      TEMPO 2306/2309 5SM BR OVC005
     FM230900 VRB03KT 4SM BR OVC005
      TEMPO 2309/2312 2SM BR OVC002
     FM231300 VRB03KT 6SM BR BKN012 BKN080
     FM231500 23004KT P6SM SCT020 BKN080
     FM231800 24008KT P6SM VCSH BKN050
     FM232300 24009KT P6SM SCT035 BKN120=



000
FTUS42 KRAH 230357 AAD
TAFFAY
TAF AMD
KFAY 230357Z 2304/2324 17005KT P6SM VCSH SCT025 BKN050
      TEMPO 2304/2306 5SM -SHRA BR BKN025 BKN050
     FM230800 22003KT 4SM BR SCT006
      TEMPO 2308/2312 1 1/2SM BR OVC004
     FM231300 23005KT P6SM SCT015
     FM231700 23007KT P6SM VCSH BKN040=



000
FTUS42 KRAH 230357 AAD
TAFFAY
TAF AMD
KFAY 230357Z 2304/2324 17005KT P6SM VCSH SCT025 BKN050
      TEMPO 2304/2306 5SM -SHRA BR BKN025 BKN050
     FM230800 22003KT 4SM BR SCT006
      TEMPO 2308/2312 1 1/2SM BR OVC004
     FM231300 23005KT P6SM SCT015
     FM231700 23007KT P6SM VCSH BKN040=



000
FTUS42 KRAH 230235 AAC
TAFFAY
TAF AMD
KFAY 230235Z 2303/2324 VRB04KT P6SM BKN025 BKN050
     FM230800 22003KT 4SM BR SCT006
      TEMPO 2308/2312 1 1/2SM BR OVC004
     FM231300 23005KT P6SM SCT015
     FM231700 23007KT P6SM VCSH BKN040=



000
FTUS42 KRAH 230235 AAC
TAFFAY
TAF AMD
KFAY 230235Z 2303/2324 VRB04KT P6SM BKN025 BKN050
     FM230800 22003KT 4SM BR SCT006
      TEMPO 2308/2312 1 1/2SM BR OVC004
     FM231300 23005KT P6SM SCT015
     FM231700 23007KT P6SM VCSH BKN040=



000
FTUS42 KRAH 230156 AAA
TAFRDU
TAF AMD
KRDU 230156Z 2302/2324 VRB04KT P6SM BKN060
     FM230800 22003KT 4SM BR SCT005
      TEMPO 2308/2312 2SM BR BKN005
     FM231300 23005KT P6SM SCT015
     FM231700 23007KT P6SM VCSH BKN040=



000
FTUS42 KRAH 230156 AAA
TAFRDU
TAF AMD
KRDU 230156Z 2302/2324 VRB04KT P6SM BKN060
     FM230800 22003KT 4SM BR SCT005
      TEMPO 2308/2312 2SM BR BKN005
     FM231300 23005KT P6SM SCT015
     FM231700 23007KT P6SM VCSH BKN040=



000
FTUS42 KRAH 230150 AAA
TAFGSO
TAF AMD
KGSO 230150Z 2302/2324 VRB04KT P6SM BKN060
     FM230600 22003KT 5SM BR SCT006
     FM231300 23005KT P6SM SCT015
     FM231700 23007KT P6SM VCSH BKN040=



000
FTUS42 KRAH 230150 AAA
TAFGSO
TAF AMD
KGSO 230150Z 2302/2324 VRB04KT P6SM BKN060
     FM230600 22003KT 5SM BR SCT006
     FM231300 23005KT P6SM SCT015
     FM231700 23007KT P6SM VCSH BKN040=



000
FTUS42 KRAH 230141 AAB
TAFFAY
TAF AMD
KFAY 230141Z 2302/2324 VRB04KT P6SM SCT025 BKN050
     FM230800 22003KT 4SM BR SCT006
      TEMPO 2308/2312 1 1/2SM BR OVC004
     FM231300 23005KT P6SM SCT015
     FM231700 23007KT P6SM VCSH BKN040=



000
FTUS42 KRAH 230141 AAB
TAFFAY
TAF AMD
KFAY 230141Z 2302/2324 VRB04KT P6SM SCT025 BKN050
     FM230800 22003KT 4SM BR SCT006
      TEMPO 2308/2312 1 1/2SM BR OVC004
     FM231300 23005KT P6SM SCT015
     FM231700 23007KT P6SM VCSH BKN040=



000
FTUS42 KRAH 230050 AAA
TAFFAY
TAF AMD
KFAY 230050Z 2301/2324 VRB04KT P6SM -TSRA SCT025 BKN050CB
     FM230200 VRB04KT P6SM BKN050
     FM230800 22003KT 4SM BR SCT006
      TEMPO 2308/2312 1 1/2SM BR OVC004
     FM231300 23005KT P6SM SCT015
     FM231700 23007KT P6SM VCSH BKN040=



000
FTUS42 KRAH 230050 AAA
TAFFAY
TAF AMD
KFAY 230050Z 2301/2324 VRB04KT P6SM -TSRA SCT025 BKN050CB
     FM230200 VRB04KT P6SM BKN050
     FM230800 22003KT 4SM BR SCT006
      TEMPO 2308/2312 1 1/2SM BR OVC004
     FM231300 23005KT P6SM SCT015
     FM231700 23007KT P6SM VCSH BKN040=



000
FTUS42 KRAH 222329
TAFINT
TAF
KINT 222329Z 2300/2324 VRB04KT P6SM BKN060
     FM230900 22003KT 5SM BR SCT006
     FM231300 23005KT P6SM SCT015
     FM231700 23007KT P6SM VCSH BKN040=



000
FTUS42 KRAH 222329
TAFGSO
TAF
KGSO 222329Z 2300/2324 VRB04KT P6SM BKN060
     FM230900 22003KT 5SM BR SCT006
     FM231300 23005KT P6SM SCT015
     FM231700 23007KT P6SM VCSH BKN040=



000
FTUS42 KRAH 222329
TAFRDU
TAF
KRDU 222329Z 2300/2324 VRB05KT P6SM VCSH SCT025 BKN050
     FM230200 VRB04KT P6SM BKN060
     FM230800 22003KT 4SM BR SCT005
      TEMPO 2308/2312 2SM BR BKN005
     FM231300 23005KT P6SM SCT015
     FM231700 23007KT P6SM VCSH BKN040=



000
FTUS42 KRAH 222329
TAFFAY
TAF
KFAY 222329Z 2300/2324 VRB04KT P6SM VCSH SCT025 BKN050
     FM230200 VRB04KT P6SM BKN050
     FM230800 22003KT 4SM BR SCT006
      TEMPO 2308/2312 1 1/2SM BR OVC004
     FM231300 23005KT P6SM SCT015
     FM231700 23007KT P6SM VCSH BKN040=



000
FTUS42 KRAH 222329
TAFRWI
TAF
KRWI 222329Z 2300/2324 05005KT P6SM VCSH SCT025 BKN050
     FM230200 VRB04KT P6SM BKN060
     FM230800 22003KT 4SM BR SCT006
      TEMPO 2308/2312 1 1/2SM BR OVC004
     FM231300 23005KT P6SM SCT015
     FM231700 23007KT P6SM VCSH BKN040=



000
FTUS42 KRAH 222329
TAFRDU
TAF
KRDU 222329Z 2300/2324 VRB05KT P6SM VCSH SCT025 BKN050
     FM230200 VRB04KT P6SM BKN060
     FM230800 22003KT 4SM BR SCT005
      TEMPO 2308/2312 2SM BR BKN005
     FM231300 23005KT P6SM SCT015
     FM231700 23007KT P6SM VCSH BKN040=



000
FTUS42 KRAH 222329
TAFRWI
TAF
KRWI 222329Z 2300/2324 05005KT P6SM VCSH SCT025 BKN050
     FM230200 VRB04KT P6SM BKN060
     FM230800 22003KT 4SM BR SCT006
      TEMPO 2308/2312 1 1/2SM BR OVC004
     FM231300 23005KT P6SM SCT015
     FM231700 23007KT P6SM VCSH BKN040=



000
FTUS42 KRAH 222329
TAFINT
TAF
KINT 222329Z 2300/2324 VRB04KT P6SM BKN060
     FM230900 22003KT 5SM BR SCT006
     FM231300 23005KT P6SM SCT015
     FM231700 23007KT P6SM VCSH BKN040=



000
FTUS42 KRAH 222329
TAFFAY
TAF
KFAY 222329Z 2300/2324 VRB04KT P6SM VCSH SCT025 BKN050
     FM230200 VRB04KT P6SM BKN050
     FM230800 22003KT 4SM BR SCT006
      TEMPO 2308/2312 1 1/2SM BR OVC004
     FM231300 23005KT P6SM SCT015
     FM231700 23007KT P6SM VCSH BKN040=



000
FTUS42 KRAH 222329
TAFGSO
TAF
KGSO 222329Z 2300/2324 VRB04KT P6SM BKN060
     FM230900 22003KT 5SM BR SCT006
     FM231300 23005KT P6SM SCT015
     FM231700 23007KT P6SM VCSH BKN040=



000
FTUS42 KRAH 221927 AAA
TAFRWI
TAF AMD
KRWI 221927Z 2219/2318 05005KT P6SM VCSH SCT025 BKN050
     FM230200 VRB04KT P6SM BKN060
     FM230900 22003KT 5SM BR OVC006
     FM231300 23005KT P6SM BKN015
     FM231700 23007KT P6SM VCSH BKN040=



000
FTUS42 KRAH 221927 AAA
TAFRWI
TAF AMD
KRWI 221927Z 2219/2318 05005KT P6SM VCSH SCT025 BKN050
     FM230200 VRB04KT P6SM BKN060
     FM230900 22003KT 5SM BR OVC006
     FM231300 23005KT P6SM BKN015
     FM231700 23007KT P6SM VCSH BKN040=



000
FTUS42 KRAH 221927 AAA
TAFINT
TAF AMD
KINT 221927Z 2219/2318 VRB04KT P6SM VCSH SCT025 BKN050
     FM230200 VRB04KT P6SM BKN060
     FM230900 22003KT 5SM BR SCT006
     FM231300 23005KT P6SM SCT015
     FM231700 23007KT P6SM VCSH BKN040=



000
FTUS42 KRAH 221927 AAA
TAFINT
TAF AMD
KINT 221927Z 2219/2318 VRB04KT P6SM VCSH SCT025 BKN050
     FM230200 VRB04KT P6SM BKN060
     FM230900 22003KT 5SM BR SCT006
     FM231300 23005KT P6SM SCT015
     FM231700 23007KT P6SM VCSH BKN040=



000
FTUS42 KRAH 221926 AAA
TAFRDU
TAF AMD
KRDU 221926Z 2219/2318 VRB05KT P6SM VCSH SCT025 BKN050
     FM230200 VRB04KT P6SM BKN060
     FM230800 22003KT 3SM BR SCT005
     FM231300 23005KT P6SM SCT015
     FM231700 23007KT P6SM VCSH BKN040=



000
FTUS42 KRAH 221816 AAA
TAFFAY
TAF AMD
KFAY 221816Z 2218/2318 VRB04KT P6SM VCSH SCT025 BKN050
     FM230200 VRB04KT P6SM BKN050
     FM230800 22003KT 4SM BR SCT006
      TEMPO 2309/2312 OVC004
     FM231300 23005KT P6SM SCT015
     FM231700 23007KT P6SM VCSH BKN040=



000
FTUS42 KRAH 221816 AAA
TAFFAY
TAF AMD
KFAY 221816Z 2218/2318 VRB04KT P6SM VCSH SCT025 BKN050
     FM230200 VRB04KT P6SM BKN050
     FM230800 22003KT 4SM BR SCT006
      TEMPO 2309/2312 OVC004
     FM231300 23005KT P6SM SCT015
     FM231700 23007KT P6SM VCSH BKN040=



000
FTUS42 KRAH 221723
TAFINT
TAF
KINT 221723Z 2218/2318 VRB04KT P6SM VCSH SCT025 BKN050
      TEMPO 2218/2220 BKN025
     FM230200 VRB04KT P6SM BKN060
     FM230900 22003KT 5SM BR SCT006
     FM231300 23005KT P6SM SCT015
     FM231700 23007KT P6SM VCSH BKN040=



000
FTUS42 KRAH 221723
TAFRDU
TAF
KRDU 221723Z 2218/2318 VRB05KT P6SM VCSH BKN025 BKN050
      TEMPO 2218/2220 2SM -TSRA BKN015CB
     FM230200 VRB04KT P6SM BKN060
     FM230800 22003KT 3SM BR SCT005
     FM231300 23005KT P6SM SCT015
     FM231700 23007KT P6SM VCSH BKN040=



000
FTUS42 KRAH 221723
TAFRWI
TAF
KRWI 221723Z 2218/2318 05005KT P6SM VCSH SCT025 BKN050
      TEMPO 2218/2220 BKN025
     FM230200 VRB04KT P6SM BKN060
     FM230900 22003KT 5SM BR OVC006
     FM231300 23005KT P6SM BKN015
     FM231700 23007KT P6SM VCSH BKN040=



000
FTUS42 KRAH 221723
TAFFAY
TAF
KFAY 221723Z 2218/2318 VRB04KT P6SM VCSH SCT025 BKN050
      TEMPO 2218/2221 BKN025
     FM230200 VRB04KT P6SM BKN050
     FM230800 22003KT 4SM BR SCT006
      TEMPO 2309/2312 OVC004
     FM231300 23005KT P6SM SCT015
     FM231700 23007KT P6SM VCSH BKN040=



000
FTUS42 KRAH 221723
TAFGSO
TAF
KGSO 221723Z 2218/2318 12003KT P6SM VCSH SCT025 BKN050
      TEMPO 2218/2220 BKN025
     FM230200 VRB04KT P6SM BKN060
     FM230900 22003KT 5SM BR SCT006
     FM231300 23005KT P6SM SCT015
     FM231700 23007KT P6SM VCSH BKN040=



000
FTUS42 KRAH 221723
TAFGSO
TAF
KGSO 221723Z 2218/2318 12003KT P6SM VCSH SCT025 BKN050
      TEMPO 2218/2220 BKN025
     FM230200 VRB04KT P6SM BKN060
     FM230900 22003KT 5SM BR SCT006
     FM231300 23005KT P6SM SCT015
     FM231700 23007KT P6SM VCSH BKN040=



000
FTUS42 KRAH 221723
TAFRDU
TAF
KRDU 221723Z 2218/2318 VRB05KT P6SM VCSH BKN025 BKN050
      TEMPO 2218/2220 2SM -TSRA BKN015CB
     FM230200 VRB04KT P6SM BKN060
     FM230800 22003KT 3SM BR SCT005
     FM231300 23005KT P6SM SCT015
     FM231700 23007KT P6SM VCSH BKN040=



000
FTUS42 KRAH 221723
TAFRWI
TAF
KRWI 221723Z 2218/2318 05005KT P6SM VCSH SCT025 BKN050
      TEMPO 2218/2220 BKN025
     FM230200 VRB04KT P6SM BKN060
     FM230900 22003KT 5SM BR OVC006
     FM231300 23005KT P6SM BKN015
     FM231700 23007KT P6SM VCSH BKN040=



000
FTUS42 KRAH 221723
TAFINT
TAF
KINT 221723Z 2218/2318 VRB04KT P6SM VCSH SCT025 BKN050
      TEMPO 2218/2220 BKN025
     FM230200 VRB04KT P6SM BKN060
     FM230900 22003KT 5SM BR SCT006
     FM231300 23005KT P6SM SCT015
     FM231700 23007KT P6SM VCSH BKN040=



000
FTUS42 KRAH 221723
TAFFAY
TAF
KFAY 221723Z 2218/2318 VRB04KT P6SM VCSH SCT025 BKN050
      TEMPO 2218/2221 BKN025
     FM230200 VRB04KT P6SM BKN050
     FM230800 22003KT 4SM BR SCT006
      TEMPO 2309/2312 OVC004
     FM231300 23005KT P6SM SCT015
     FM231700 23007KT P6SM VCSH BKN040=



000
FTUS42 KRAH 221523 AAA
TAFFAY
TAF AMD
KFAY 221523Z 2215/2312 05004KT P6SM OVC025
      TEMPO 2215/2216 OVC015
     FM221600 06005KT P6SM VCSH BKN035 BKN150
     FM230100 VRB04KT P6SM BKN012 BKN120=



000
FTUS42 KRAH 221523 AAA
TAFFAY
TAF AMD
KFAY 221523Z 2215/2312 05004KT P6SM OVC025
      TEMPO 2215/2216 OVC015
     FM221600 06005KT P6SM VCSH BKN035 BKN150
     FM230100 VRB04KT P6SM BKN012 BKN120=



000
FTUS42 KRAH 221404 AAA
TAFGSO
TAF AMD
KGSO 221404Z 2214/2312 06004KT P6SM BKN015 OVC050
      TEMPO 2214/2215 BKN008
     FM221600 06005KT P6SM BKN025
     FM221900 06005KT P6SM VCSH SCT025 BKN035 BKN150
     FM230300 VRB04KT P6SM BKN012 BKN120=



000
FTUS42 KRAH 221404 AAA
TAFGSO
TAF AMD
KGSO 221404Z 2214/2312 06004KT P6SM BKN015 OVC050
      TEMPO 2214/2215 BKN008
     FM221600 06005KT P6SM BKN025
     FM221900 06005KT P6SM VCSH SCT025 BKN035 BKN150
     FM230300 VRB04KT P6SM BKN012 BKN120=



000
FTUS42 KRAH 221402 AAA
TAFRDU
TAF AMD
KRDU 221402Z 2214/2312 08004KT P6SM OVC015
     FM221600 06005KT P6SM BKN025
     FM221800 06005KT P6SM VCSH SCT025 BKN035 BKN150
     FM230200 VRB04KT P6SM BKN012 BKN120=



000
FTUS42 KRAH 221402 AAA
TAFRDU
TAF AMD
KRDU 221402Z 2214/2312 08004KT P6SM OVC015
     FM221600 06005KT P6SM BKN025
     FM221800 06005KT P6SM VCSH SCT025 BKN035 BKN150
     FM230200 VRB04KT P6SM BKN012 BKN120=



000
FTUS42 KRAH 221351 AAA
TAFINT
TAF AMD
KINT 221351Z 2214/2312 VRB03KT P6SM SCT015 OVC040
      TEMPO 2214/2215 BKN015
     FM221500 06005KT P6SM BKN025 BKN150
     FM221800 06005KT P6SM VCSH BKN035 BKN150
     FM230300 VRB04KT P6SM BKN012 BKN120=



000
FTUS42 KRAH 221351 AAA
TAFINT
TAF AMD
KINT 221351Z 2214/2312 VRB03KT P6SM SCT015 OVC040
      TEMPO 2214/2215 BKN015
     FM221500 06005KT P6SM BKN025 BKN150
     FM221800 06005KT P6SM VCSH BKN035 BKN150
     FM230300 VRB04KT P6SM BKN012 BKN120=



000
FTUS42 KRAH 221127
TAFGSO
TAF
KGSO 221127Z 2212/2312 06004KT 3SM BR BKN002 BKN040
      TEMPO 2212/2214 6SM BR BKN006 OVC040
     FM221400 06005KT P6SM BKN020 BKN150
     FM221900 06005KT P6SM VCSH SCT025 BKN035 BKN150
     FM230300 VRB04KT P6SM BKN012 BKN120=



000
FTUS42 KRAH 221127
TAFFAY
TAF
KFAY 221127Z 2212/2312 05004KT 1/2SM FG OVC002
      TEMPO 2212/2213 2SM BR BKN006 OVC035
     FM221400 07004KT 5SM BR OVC008
     FM221600 06005KT P6SM VCSH BKN025 BKN150
     FM230100 VRB04KT P6SM BKN012 BKN120=



000
FTUS42 KRAH 221127
TAFRDU
TAF
KRDU 221127Z 2212/2312 08004KT 2SM BR BCFG OVC004
     FM221400 07004KT 5SM BR OVC008
     FM221600 06005KT P6SM BKN025 BKN150
     FM221800 06005KT P6SM VCSH SCT025 BKN035 BKN150
     FM230200 VRB04KT P6SM BKN012 BKN120=



000
FTUS42 KRAH 221127
TAFINT
TAF
KINT 221127Z 2212/2312 VRB03KT P6SM FEW019 SCT025 OVC040
     FM221500 06005KT P6SM BKN025 BKN150
     FM221900 06005KT P6SM VCSH SCT025 BKN035 BKN150
     FM230300 VRB04KT P6SM BKN012 BKN120=



000
FTUS42 KRAH 221127
TAFRWI
TAF
KRWI 221127Z 2212/2312 03005KT 5SM BR OVC004
      TEMPO 2212/2214 6SM BR OVC006
     FM221400 06005KT P6SM BKN015 BKN150
     FM221700 06005KT P6SM VCSH SCT025 BKN035 BKN150
     FM230300 VRB04KT P6SM BKN012 BKN120=



000
FTUS42 KRAH 221127
TAFRWI
TAF
KRWI 221127Z 2212/2312 03005KT 5SM BR OVC004
      TEMPO 2212/2214 6SM BR OVC006
     FM221400 06005KT P6SM BKN015 BKN150
     FM221700 06005KT P6SM VCSH SCT025 BKN035 BKN150
     FM230300 VRB04KT P6SM BKN012 BKN120=



000
FTUS42 KRAH 221127
TAFINT
TAF
KINT 221127Z 2212/2312 VRB03KT P6SM FEW019 SCT025 OVC040
     FM221500 06005KT P6SM BKN025 BKN150
     FM221900 06005KT P6SM VCSH SCT025 BKN035 BKN150
     FM230300 VRB04KT P6SM BKN012 BKN120=



000
FTUS42 KRAH 221127
TAFRDU
TAF
KRDU 221127Z 2212/2312 08004KT 2SM BR BCFG OVC004
     FM221400 07004KT 5SM BR OVC008
     FM221600 06005KT P6SM BKN025 BKN150
     FM221800 06005KT P6SM VCSH SCT025 BKN035 BKN150
     FM230200 VRB04KT P6SM BKN012 BKN120=



000
FTUS42 KRAH 221127
TAFGSO
TAF
KGSO 221127Z 2212/2312 06004KT 3SM BR BKN002 BKN040
      TEMPO 2212/2214 6SM BR BKN006 OVC040
     FM221400 06005KT P6SM BKN020 BKN150
     FM221900 06005KT P6SM VCSH SCT025 BKN035 BKN150
     FM230300 VRB04KT P6SM BKN012 BKN120=



000
FTUS42 KRAH 221127
TAFFAY
TAF
KFAY 221127Z 2212/2312 05004KT 1/2SM FG OVC002
      TEMPO 2212/2213 2SM BR BKN006 OVC035
     FM221400 07004KT 5SM BR OVC008
     FM221600 06005KT P6SM VCSH BKN025 BKN150
     FM230100 VRB04KT P6SM BKN012 BKN120=



000
FTUS42 KRAH 221018 AAB
TAFRWI
TAF AMD
KRWI 221018Z 2210/2306 04004KT P6SM SCT004 SCT015 BKN070
      TEMPO 2210/2214 3SM BR OVC004
     FM221400 06005KT P6SM BKN015 BKN150
     FM221700 06005KT P6SM VCSH SCT025 BKN035 BKN150
     FM230300 VRB04KT P6SM BKN012 BKN120=



000
FTUS42 KRAH 221018 AAB
TAFRWI
TAF AMD
KRWI 221018Z 2210/2306 04004KT P6SM SCT004 SCT015 BKN070
      TEMPO 2210/2214 3SM BR OVC004
     FM221400 06005KT P6SM BKN015 BKN150
     FM221700 06005KT P6SM VCSH SCT025 BKN035 BKN150
     FM230300 VRB04KT P6SM BKN012 BKN120=



000
FTUS42 KRAH 221017 AAC
TAFFAY
TAF AMD
KFAY 221017Z 2210/2306 05004KT 1/2SM FG OVC002
      TEMPO 2210/2213 2SM BR BKN006 OVC035
     FM221300 06005KT P6SM BKN015 BKN150
     FM221600 06005KT P6SM VCSH SCT025 BKN035 BKN150
     FM230100 VRB04KT P6SM BKN012 BKN120=



000
FTUS42 KRAH 221017 AAC
TAFFAY
TAF AMD
KFAY 221017Z 2210/2306 05004KT 1/2SM FG OVC002
      TEMPO 2210/2213 2SM BR BKN006 OVC035
     FM221300 06005KT P6SM BKN015 BKN150
     FM221600 06005KT P6SM VCSH SCT025 BKN035 BKN150
     FM230100 VRB04KT P6SM BKN012 BKN120=



000
FTUS42 KRAH 221001 AAA
TAFRWI
TAF AMD
KRWI 221001Z 2210/2306 03003KT P6SM SCT004 OVC015
      TEMPO 2210/2214 3SM BR OVC004
     FM221400 06005KT P6SM BKN015 BKN150
     FM221700 06005KT P6SM VCSH SCT025 BKN035 BKN150
     FM230300 VRB04KT P6SM BKN012 BKN120=



000
FTUS42 KRAH 221001 AAA
TAFRWI
TAF AMD
KRWI 221001Z 2210/2306 03003KT P6SM SCT004 OVC015
      TEMPO 2210/2214 3SM BR OVC004
     FM221400 06005KT P6SM BKN015 BKN150
     FM221700 06005KT P6SM VCSH SCT025 BKN035 BKN150
     FM230300 VRB04KT P6SM BKN012 BKN120=



000
FTUS42 KRAH 221000 AAB
TAFGSO
TAF AMD
KGSO 221000Z 2210/2306 03003KT 1/2SM FG OVC002
      TEMPO 2210/2213 2SM BR SCT002 OVC035
     FM221300 06005KT P6SM BKN025 BKN150
     FM221900 06005KT P6SM VCSH SCT025 BKN035 BKN150
     FM230300 VRB04KT P6SM BKN012 BKN120=



000
FTUS42 KRAH 221000 AAB
TAFGSO
TAF AMD
KGSO 221000Z 2210/2306 03003KT 1/2SM FG OVC002
      TEMPO 2210/2213 2SM BR SCT002 OVC035
     FM221300 06005KT P6SM BKN025 BKN150
     FM221900 06005KT P6SM VCSH SCT025 BKN035 BKN150
     FM230300 VRB04KT P6SM BKN012 BKN120=



000
FTUS42 KRAH 220959 AAA
TAFINT
TAF AMD
KINT 220959Z 2210/2306 02003KT P6SM BKN035
      TEMPO 2210/2212 5SM BR BKN015 OVC035
     FM221500 06005KT P6SM BKN015 BKN150
     FM221900 06005KT P6SM VCSH SCT025 BKN035 BKN150
     FM230300 VRB04KT P6SM BKN012 BKN120=



000
FTUS42 KRAH 220959 AAA
TAFINT
TAF AMD
KINT 220959Z 2210/2306 02003KT P6SM BKN035
      TEMPO 2210/2212 5SM BR BKN015 OVC035
     FM221500 06005KT P6SM BKN015 BKN150
     FM221900 06005KT P6SM VCSH SCT025 BKN035 BKN150
     FM230300 VRB04KT P6SM BKN012 BKN120=



000
FTUS42 KRAH 220907 AAB
TAFRDU
TAF AMD
KRDU 220907Z 2209/2306 07004KT 4SM BR BKN005 OVC020
      TEMPO 2209/2212 2SM BR OVC002
     FM221400 06005KT P6SM BKN015 BKN150
     FM221800 06005KT P6SM VCSH SCT025 BKN035 BKN150
     FM230200 VRB04KT P6SM BKN012 BKN120=



000
FTUS42 KRAH 220906 AAA
TAFGSO
TAF AMD
KGSO 220906Z 2209/2306 02005KT 6SM BR BKN035
      TEMPO 2209/2212 5SM BR BKN015 OVC030
     FM221500 06005KT P6SM BKN025 BKN150
     FM221900 06005KT P6SM VCSH SCT025 BKN035 BKN150
     FM230300 VRB04KT P6SM BKN012 BKN120=



000
FTUS42 KRAH 220906 AAA
TAFGSO
TAF AMD
KGSO 220906Z 2209/2306 02005KT 6SM BR BKN035
      TEMPO 2209/2212 5SM BR BKN015 OVC030
     FM221500 06005KT P6SM BKN025 BKN150
     FM221900 06005KT P6SM VCSH SCT025 BKN035 BKN150
     FM230300 VRB04KT P6SM BKN012 BKN120=



000
FTUS42 KRAH 220740 AAB
TAFFAY
TAF AMD
KFAY 220740Z 2208/2306 04004KT 2SM BR BKN006 OVC035
      TEMPO 2208/2212 1/2SM FG OVC002
     FM221300 06005KT P6SM BKN015 BKN150
     FM221600 06005KT P6SM VCSH SCT025 BKN035 BKN150
     FM230100 VRB04KT P6SM BKN012 BKN120=



000
FTUS42 KRAH 220740 AAB
TAFFAY
TAF AMD
KFAY 220740Z 2208/2306 04004KT 2SM BR BKN006 OVC035
      TEMPO 2208/2212 1/2SM FG OVC002
     FM221300 06005KT P6SM BKN015 BKN150
     FM221600 06005KT P6SM VCSH SCT025 BKN035 BKN150
     FM230100 VRB04KT P6SM BKN012 BKN120=



000
FTUS42 KRAH 220606 AAA
TAFFAY
TAF AMD
KFAY 220606Z 2206/2306 04004KT 5SM BR BKN006 OVC035
      TEMPO 2209/2212 2SM BR OVC003
     FM221300 06005KT P6SM BKN015 BKN150
     FM221600 06005KT P6SM VCSH SCT025 BKN035 BKN150
     FM230100 VRB04KT P6SM BKN012 BKN120=



000
FTUS42 KRAH 220605 AAA
TAFRDU
TAF AMD
KRDU 220605Z 2206/2306 07004KT 4SM BR BKN005 OVC020
      TEMPO 2209/2212 2SM BR OVC003
     FM221400 06005KT P6SM BKN015 BKN150
     FM221800 06005KT P6SM VCSH SCT025 BKN035 BKN150
     FM230200 VRB04KT P6SM BKN012 BKN120=



000
FTUS42 KRAH 220605 AAA
TAFRDU
TAF AMD
KRDU 220605Z 2206/2306 07004KT 4SM BR BKN005 OVC020
      TEMPO 2209/2212 2SM BR OVC003
     FM221400 06005KT P6SM BKN015 BKN150
     FM221800 06005KT P6SM VCSH SCT025 BKN035 BKN150
     FM230200 VRB04KT P6SM BKN012 BKN120=



000
FTUS42 KRAH 220522
TAFGSO
TAF
KGSO 220522Z 2206/2306 VRB04KT P6SM FEW009 SCT080 BKN250
     FM220800 07004KT 5SM BR BKN008 OVC020
      TEMPO 2209/2212 2SM BR OVC004
     FM221500 06005KT P6SM BKN015 BKN150
     FM221900 06005KT P6SM VCSH SCT025 BKN035 BKN150
     FM230300 VRB04KT P6SM BKN012 BKN120=



000
FTUS42 KRAH 220522
TAFFAY
TAF
KFAY 220522Z 2206/2306 04004KT 6SM BR BKN080
     FM220800 07004KT 4SM BR BKN012 OVC035
      TEMPO 2209/2212 OVC008
     FM221300 06005KT P6SM BKN015 BKN150
     FM221600 06005KT P6SM VCSH SCT025 BKN035 BKN150
     FM230100 VRB04KT P6SM BKN012 BKN120=



000
FTUS42 KRAH 220522
TAFRWI
TAF
KRWI 220522Z 2206/2306 00000KT P6SM BKN015 OVC120
     FM220800 07004KT 4SM BR BKN008 OVC035
      TEMPO 2209/2212 2SM BR OVC003
     FM221400 06005KT P6SM BKN015 BKN150
     FM221700 06005KT P6SM VCSH SCT025 BKN035 BKN150
     FM230300 VRB04KT P6SM BKN012 BKN120=



000
FTUS42 KRAH 220522
TAFINT
TAF
KINT 220522Z 2206/2306 07004KT P6SM SCT010 SCT025
     FM220800 07004KT 5SM BR BKN008 OVC020
      TEMPO 2209/2212 2SM BR OVC004
     FM221500 06005KT P6SM BKN015 BKN150
     FM221900 06005KT P6SM VCSH SCT025 BKN035 BKN150
     FM230300 VRB04KT P6SM BKN012 BKN120=



000
FTUS42 KRAH 220522
TAFINT
TAF
KINT 220522Z 2206/2306 07004KT P6SM SCT010 SCT025
     FM220800 07004KT 5SM BR BKN008 OVC020
      TEMPO 2209/2212 2SM BR OVC004
     FM221500 06005KT P6SM BKN015 BKN150
     FM221900 06005KT P6SM VCSH SCT025 BKN035 BKN150
     FM230300 VRB04KT P6SM BKN012 BKN120=



000
FTUS42 KRAH 220522
TAFFAY
TAF
KFAY 220522Z 2206/2306 04004KT 6SM BR BKN080
     FM220800 07004KT 4SM BR BKN012 OVC035
      TEMPO 2209/2212 OVC008
     FM221300 06005KT P6SM BKN015 BKN150
     FM221600 06005KT P6SM VCSH SCT025 BKN035 BKN150
     FM230100 VRB04KT P6SM BKN012 BKN120=



000
FTUS42 KRAH 220522
TAFRWI
TAF
KRWI 220522Z 2206/2306 00000KT P6SM BKN015 OVC120
     FM220800 07004KT 4SM BR BKN008 OVC035
      TEMPO 2209/2212 2SM BR OVC003
     FM221400 06005KT P6SM BKN015 BKN150
     FM221700 06005KT P6SM VCSH SCT025 BKN035 BKN150
     FM230300 VRB04KT P6SM BKN012 BKN120=



000
FTUS42 KRAH 220522
TAFRDU
TAF
KRDU 220522Z 2206/2306 00000KT 5SM BR SCT012 SCT090 BKN250
     FM220800 07004KT 4SM BR BKN008 OVC020
      TEMPO 2209/2212 2SM BR OVC004
     FM221400 06005KT P6SM BKN015 BKN150
     FM221800 06005KT P6SM VCSH SCT025 BKN035 BKN150
     FM230200 VRB04KT P6SM BKN012 BKN120=



000
FTUS42 KRAH 220522
TAFGSO
TAF
KGSO 220522Z 2206/2306 VRB04KT P6SM FEW009 SCT080 BKN250
     FM220800 07004KT 5SM BR BKN008 OVC020
      TEMPO 2209/2212 2SM BR OVC004
     FM221500 06005KT P6SM BKN015 BKN150
     FM221900 06005KT P6SM VCSH SCT025 BKN035 BKN150
     FM230300 VRB04KT P6SM BKN012 BKN120=



000
FTUS42 KRAH 220522
TAFRDU
TAF
KRDU 220522Z 2206/2306 00000KT 5SM BR SCT012 SCT090 BKN250
     FM220800 07004KT 4SM BR BKN008 OVC020
      TEMPO 2209/2212 2SM BR OVC004
     FM221400 06005KT P6SM BKN015 BKN150
     FM221800 06005KT P6SM VCSH SCT025 BKN035 BKN150
     FM230200 VRB04KT P6SM BKN012 BKN120=



000
FTUS42 KRAH 220304 AAC
TAFRDU
TAF AMD
KRDU 220304Z 2203/2224 VRB03KT P6SM SCT007 OVC012
      TEMPO 2203/2206 BKN007
     FM220600 VRB03KT 4SM BR OVC005
     FM221400 09006KT P6SM BKN025
     FM221700 10005KT P6SM BKN040=



000
FTUS42 KRAH 220304 AAC
TAFRDU
TAF AMD
KRDU 220304Z 2203/2224 VRB03KT P6SM SCT007 OVC012
      TEMPO 2203/2206 BKN007
     FM220600 VRB03KT 4SM BR OVC005
     FM221400 09006KT P6SM BKN025
     FM221700 10005KT P6SM BKN040=



000
FTUS42 KRAH 220302 AAB
TAFINT
TAF AMD
KINT 220302Z 2203/2224 VRB03KT 6SM BR SCT004 OVC012
     FM220600 VRB03KT 2SM BR OVC004
     FM221400 09005KT P6SM BKN020
     FM221700 10005KT P6SM BKN040=



000
FTUS42 KRAH 220302 AAB
TAFINT
TAF AMD
KINT 220302Z 2203/2224 VRB03KT 6SM BR SCT004 OVC012
     FM220600 VRB03KT 2SM BR OVC004
     FM221400 09005KT P6SM BKN020
     FM221700 10005KT P6SM BKN040=



000
FTUS42 KRAH 220252 AAB
TAFRDU
TAF AMD
KRDU 220252Z 2203/2224 VRB03KT P6SM OVC015
     FM220800 VRB03KT 4SM BR OVC005
     FM221400 09006KT P6SM BKN025
     FM221700 10005KT P6SM BKN040=



000
FTUS42 KRAH 220251 AAA
TAFRWI
TAF AMD
KRWI 220251Z 2203/2224 VRB03KT P6SM SCT015
      TEMPO 2203/2206 3SM BR BKN015
     FM220600 VRB03KT 2SM BR OVC010
     FM221300 09006KT P6SM BKN025
     FM221500 10005KT P6SM BKN040=



000
FTUS42 KRAH 220251 AAA
TAFRWI
TAF AMD
KRWI 220251Z 2203/2224 VRB03KT P6SM SCT015
      TEMPO 2203/2206 3SM BR BKN015
     FM220600 VRB03KT 2SM BR OVC010
     FM221300 09006KT P6SM BKN025
     FM221500 10005KT P6SM BKN040=



000
FTUS42 KRAH 220245 AAA
TAFINT
TAF AMD
KINT 220245Z 2203/2224 VRB03KT 6SM BR OVC012
      TEMPO 2203/2206 2SM BR BKN005
     FM220600 VRB03KT 2SM BR OVC004
     FM221400 09005KT P6SM BKN020
     FM221700 10005KT P6SM BKN040=



000
FTUS42 KRAH 220245 AAA
TAFINT
TAF AMD
KINT 220245Z 2203/2224 VRB03KT 6SM BR OVC012
      TEMPO 2203/2206 2SM BR BKN005
     FM220600 VRB03KT 2SM BR OVC004
     FM221400 09005KT P6SM BKN020
     FM221700 10005KT P6SM BKN040=



000
FTUS42 KRAH 220207 AAA
TAFRDU
TAF AMD
KRDU 220207Z 2202/2224 12005KT P6SM SCT015 BKN040
     FM220300 VRB03KT P6SM OVC015
     FM220800 VRB03KT 4SM BR OVC005
     FM221400 09006KT P6SM BKN025
     FM221700 10005KT P6SM BKN040=



000
FTUS42 KRAH 220149 AAA
TAFGSO
TAF AMD
KGSO 220149Z 2202/2224 VRB03KT 6SM BR OVC012
     FM220800 VRB03KT 4SM BR OVC004
     FM221500 09006KT P6SM BKN020
     FM221700 10005KT P6SM BKN040=



000
FTUS42 KRAH 220149 AAA
TAFGSO
TAF AMD
KGSO 220149Z 2202/2224 VRB03KT 6SM BR OVC012
     FM220800 VRB03KT 4SM BR OVC004
     FM221500 09006KT P6SM BKN020
     FM221700 10005KT P6SM BKN040=



000
FTUS42 KRAH 220112 AAA
TAFFAY
TAF AMD
KFAY 220112Z 2201/2224 07004KT P6SM SCT015 OVC080
     FM220300 VRB03KT P6SM OVC015
     FM220900 VRB03KT 4SM BR OVC003
     FM221400 09006KT P6SM BKN025
     FM221700 10005KT P6SM BKN040=



000
FTUS42 KRAH 220112 AAA
TAFFAY
TAF AMD
KFAY 220112Z 2201/2224 07004KT P6SM SCT015 OVC080
     FM220300 VRB03KT P6SM OVC015
     FM220900 VRB03KT 4SM BR OVC003
     FM221400 09006KT P6SM BKN025
     FM221700 10005KT P6SM BKN040=



000
FTUS42 KRAH 212330 CCA
TAFINT
TAF COR
KINT 212330Z 2200/2224 06005KT P6SM SCT025 BKN040
     FM220200 VRB03KT 6SM BR OVC012
     FM220600 VRB03KT 4SM BR OVC006
     FM221400 09005KT P6SM BKN020
     FM221700 10005KT P6SM BKN040=



000
FTUS42 KRAH 212330 CCA
TAFINT
TAF COR
KINT 212330Z 2200/2224 06005KT P6SM SCT025 BKN040
     FM220200 VRB03KT 6SM BR OVC012
     FM220600 VRB03KT 4SM BR OVC006
     FM221400 09005KT P6SM BKN020
     FM221700 10005KT P6SM BKN040=



000
FTUS42 KRAH 212329
TAFGSO
TAF
KGSO 212329Z 2200/2224 08005KT P6SM SCT025 BKN060
     FM220200 VRB03KT 6SM BR OVC012
     FM220800 VRB03KT 4SM BR OVC004
     FM221500 09006KT P6SM BKN020
     FM221700 10005KT P6SM BKN040=



000
FTUS42 KRAH 212329
TAFINT
TAF
KINT 212329Z 2200/2224 06005KT P6SM BKN025 OVC060
     FM220200 VRB03KT 6SM BR OVC012
     FM220600 VRB03KT 4SM BR OVC006
     FM221400 09005KT P6SM BKN020
     FM221700 10005KT P6SM BKN040=



000
FTUS42 KRAH 212329
TAFRDU
TAF
KRDU 212329Z 2200/2224 12005KT P6SM SCT025 BKN040
     FM220300 VRB03KT P6SM OVC015
     FM220800 VRB03KT 4SM BR OVC005
     FM221400 09006KT P6SM BKN025
     FM221700 10005KT P6SM BKN040=



000
FTUS42 KRAH 212329
TAFFAY
TAF
KFAY 212329Z 2200/2224 12005KT P6SM -RA BKN007 OVC025
     FM220100 VRB03KT P6SM OVC007
     FM220900 VRB03KT 4SM BR OVC003
     FM221400 09006KT P6SM BKN025
     FM221700 10005KT P6SM BKN040=



000
FTUS42 KRAH 212329
TAFRWI
TAF
KRWI 212329Z 2200/2224 10005KT P6SM SCT025 OVC050
     FM220200 VRB03KT P6SM OVC025
     FM220900 VRB03KT 4SM BR OVC010
     FM221300 09006KT P6SM BKN025
     FM221500 10005KT P6SM BKN040=



000
FTUS42 KRAH 212329
TAFRWI
TAF
KRWI 212329Z 2200/2224 10005KT P6SM SCT025 OVC050
     FM220200 VRB03KT P6SM OVC025
     FM220900 VRB03KT 4SM BR OVC010
     FM221300 09006KT P6SM BKN025
     FM221500 10005KT P6SM BKN040=



000
FTUS42 KRAH 212329
TAFGSO
TAF
KGSO 212329Z 2200/2224 08005KT P6SM SCT025 BKN060
     FM220200 VRB03KT 6SM BR OVC012
     FM220800 VRB03KT 4SM BR OVC004
     FM221500 09006KT P6SM BKN020
     FM221700 10005KT P6SM BKN040=



000
FTUS42 KRAH 212329
TAFRDU
TAF
KRDU 212329Z 2200/2224 12005KT P6SM SCT025 BKN040
     FM220300 VRB03KT P6SM OVC015
     FM220800 VRB03KT 4SM BR OVC005
     FM221400 09006KT P6SM BKN025
     FM221700 10005KT P6SM BKN040=



000
FTUS42 KRAH 212329
TAFFAY
TAF
KFAY 212329Z 2200/2224 12005KT P6SM -RA BKN007 OVC025
     FM220100 VRB03KT P6SM OVC007
     FM220900 VRB03KT 4SM BR OVC003
     FM221400 09006KT P6SM BKN025
     FM221700 10005KT P6SM BKN040=



000
FTUS42 KRAH 212329
TAFINT
TAF
KINT 212329Z 2200/2224 06005KT P6SM BKN025 OVC060
     FM220200 VRB03KT 6SM BR OVC012
     FM220600 VRB03KT 4SM BR OVC006
     FM221400 09005KT P6SM BKN020
     FM221700 10005KT P6SM BKN040=



000
FTUS42 KRAH 212121 AAC
TAFRDU
TAF AMD
KRDU 212121Z 2121/2218 VRB05KT 6SM -RA BR OVC015
     FM212200 14005KT 6SM BR VCSH OVC025
     FM220200 VRB03KT P6SM OVC015
     FM220900 VRB03KT 4SM BR OVC005
     FM221400 09006KT P6SM BKN025=



000
FTUS42 KRAH 212121 AAC
TAFRDU
TAF AMD
KRDU 212121Z 2121/2218 VRB05KT 6SM -RA BR OVC015
     FM212200 14005KT 6SM BR VCSH OVC025
     FM220200 VRB03KT P6SM OVC015
     FM220900 VRB03KT 4SM BR OVC005
     FM221400 09006KT P6SM BKN025=



000
FTUS42 KRAH 212019 AAB
TAFRDU
TAF AMD
KRDU 212019Z 2120/2218 VRB05KT 6SM -SHRA BR OVC015
      TEMPO 2120/2122 1 1/2SM -TSRA BR OVC006CB
     FM212200 14005KT 6SM BR VCSH OVC025
     FM220200 VRB03KT P6SM OVC015
     FM220900 VRB03KT 4SM BR OVC005
     FM221400 09006KT P6SM BKN025=



000
FTUS42 KRAH 212019 AAB
TAFRDU
TAF AMD
KRDU 212019Z 2120/2218 VRB05KT 6SM -SHRA BR OVC015
      TEMPO 2120/2122 1 1/2SM -TSRA BR OVC006CB
     FM212200 14005KT 6SM BR VCSH OVC025
     FM220200 VRB03KT P6SM OVC015
     FM220900 VRB03KT 4SM BR OVC005
     FM221400 09006KT P6SM BKN025=



    US Dept of Commerce
    National Oceanic and Atmospheric Administration
    National Weather Service
    1325 East West Highway
    Silver Spring, MD 20910
    Page Author: NWS Internet Services Team
Disclaimer
Information Quality
Credits
Glossary
Privacy Policy
Freedom of Information Act (FOIA)
About Us
Career Opportunities